sensor_id;sensor_type;location;lat;lon;timestamp;temperature;humidity
51793;DHT22;37850;53.178;6.376;2023-04-01T00:01:48;10.00;99.90
51793;DHT22;37850;53.178;6.376;2023-04-01T00:04:14;10.00;99.90
51793;DHT22;37850;53.178;6.376;2023-04-01T00:06:41;10.00;99.90
51793;DHT22;37850;53.178;6.376;2023-04-01T00:09:06;10.00;99.90
51793;DHT22;37850;53.178;6.376;2023-04-01T00:11:32;9.90;99.90
51793;DHT22;37850;53.178;6.376;2023-04-01T00:13:58;9.90;99.90
51793;DHT22;37850;53.178;6.376;2023-04-01T00:16:24;10.00;99.90
51793;DHT22;37850;53.178;6.376;2023-04-01T00:18:50;9.90;99.90
51793;DHT22;37850;53.178;6.376;2023-04-01T00:21:17;9.90;99.90
51793;DHT22;37850;53.178;6.376;2023-04-01T00:23:46;10.00;99.90
51793;DHT22;37850;53.178;6.376;2023-04-01T00:26:11;10.00;99.90
51793;DHT22;37850;53.178;6.376;2023-04-01T00:28:37;9.90;99.90
51793;DHT22;37850;53.178;6.376;2023-04-01T00:31:07;10.00;99.90
51793;DHT22;37850;53.178;6.376;2023-04-01T00:33:33;10.00;99.90
51793;DHT22;37850;53.178;6.376;2023-04-01T00:36:10;9.90;99.90
51793;DHT22;37850;53.178;6.376;2023-04-01T00:38:37;9.90;99.90
51793;DHT22;37850;53.178;6.376;2023-04-01T00:41:04;9.90;99.90
51793;DHT22;37850;53.178;6.376;2023-04-01T00:43:30;9.90;99.90
51793;DHT22;37850;53.178;6.376;2023-04-01T00:45:57;9.90;99.90
51793;DHT22;37850;53.178;6.376;2023-04-01T00:48:27;10.10;99.90
51793;DHT22;37850;53.178;6.376;2023-04-01T00:51:02;9.90;99.90
51793;DHT22;37850;53.178;6.376;2023-04-01T00:53:30;10.00;99.90
51793;DHT22;37850;53.178;6.376;2023-04-01T00:56:01;9.90;99.90
51793;DHT22;37850;53.178;6.376;2023-04-01T00:58:31;9.90;99.90
51793;DHT22;37850;53.178;6.376;2023-04-01T01:00:59;9.90;99.90
51793;DHT22;37850;53.178;6.376;2023-04-01T01:03:25;9.90;99.90
51793;DHT22;37850;53.178;6.376;2023-04-01T01:16:49;9.90;99.90
51793;DHT22;37850;53.178;6.376;2023-04-01T01:19:43;9.90;99.90
51793;DHT22;37850;53.178;6.376;2023-04-01T01:30:57;9.90;99.90
51793;DHT22;37850;53.178;6.376;2023-04-01T01:36:21;9.90;99.90
51793;DHT22;37850;53.178;6.376;2023-04-01T01:38:48;9.90;99.90
51793;DHT22;37850;53.178;6.376;2023-04-01T01:41:16;9.80;99.90
51793;DHT22;37850;53.178;6.376;2023-04-01T01:43:46;9.90;99.90
51793;DHT22;37850;53.178;6.376;2023-04-01T01:46:18;9.90;99.90
51793;DHT22;37850;53.178;6.376;2023-04-01T01:48:46;9.90;99.90
51793;DHT22;37850;53.178;6.376;2023-04-01T01:51:13;9.90;99.90
51793;DHT22;37850;53.178;6.376;2023-04-01T01:53:39;9.80;99.90
51793;DHT22;37850;53.178;6.376;2023-04-01T01:56:05;9.90;99.90
51793;DHT22;37850;53.178;6.376;2023-04-01T01:58:40;9.80;99.90
51793;DHT22;37850;53.178;6.376;2023-04-01T02:01:13;9.90;99.90
51793;DHT22;37850;53.178;6.376;2023-04-01T02:03:41;9.80;99.90
51793;DHT22;37850;53.178;6.376;2023-04-01T02:06:10;9.80;99.90
51793;DHT22;37850;53.178;6.376;2023-04-01T02:08:55;9.80;99.90
51793;DHT22;37850;53.178;6.376;2023-04-01T02:11:33;9.80;99.90
51793;DHT22;37850;53.178;6.376;2023-04-01T02:14:10;9.80;99.90
51793;DHT22;37850;53.178;6.376;2023-04-01T02:17:07;9.80;99.90
51793;DHT22;37850;53.178;6.376;2023-04-01T02:19:41;9.80;99.90
51793;DHT22;37850;53.178;6.376;2023-04-01T02:22:12;9.90;99.90
51793;DHT22;37850;53.178;6.376;2023-04-01T02:24:40;9.80;99.90
51793;DHT22;37850;53.178;6.376;2023-04-01T02:27:07;9.80;99.90
51793;DHT22;37850;53.178;6.376;2023-04-01T02:29:34;9.80;99.90
51793;DHT22;37850;53.178;6.376;2023-04-01T02:32:00;9.80;99.90
51793;DHT22;37850;53.178;6.376;2023-04-01T02:34:26;10.10;99.90
51793;DHT22;37850;53.178;6.376;2023-04-01T02:36:52;9.80;99.90
51793;DHT22;37850;53.178;6.376;2023-04-01T02:39:19;9.80;99.90
51793;DHT22;37850;53.178;6.376;2023-04-01T02:41:46;9.80;99.90
51793;DHT22;37850;53.178;6.376;2023-04-01T02:44:13;9.80;99.90
51793;DHT22;37850;53.178;6.376;2023-04-01T02:46:42;9.80;99.90
51793;DHT22;37850;53.178;6.376;2023-04-01T02:49:08;9.80;99.90
51793;DHT22;37850;53.178;6.376;2023-04-01T02:51:34;9.90;99.90
51793;DHT22;37850;53.178;6.376;2023-04-01T02:54:00;9.80;99.90
51793;DHT22;37850;53.178;6.376;2023-04-01T02:56:25;9.80;99.90
51793;DHT22;37850;53.178;6.376;2023-04-01T02:58:52;9.80;99.90
51793;DHT22;37850;53.178;6.376;2023-04-01T03:01:18;9.80;99.90
51793;DHT22;37850;53.178;6.376;2023-04-01T03:03:52;9.80;99.90
51793;DHT22;37850;53.178;6.376;2023-04-01T03:06:18;9.70;99.90
51793;DHT22;37850;53.178;6.376;2023-04-01T03:08:47;9.70;99.90
51793;DHT22;37850;53.178;6.376;2023-04-01T03:11:13;9.80;99.90
51793;DHT22;37850;53.178;6.376;2023-04-01T03:13:38;9.80;99.90
51793;DHT22;37850;53.178;6.376;2023-04-01T03:16:05;9.80;99.90
51793;DHT22;37850;53.178;6.376;2023-04-01T03:18:30;9.80;99.90
51793;DHT22;37850;53.178;6.376;2023-04-01T03:20:56;9.80;99.90
51793;DHT22;37850;53.178;6.376;2023-04-01T03:23:22;9.80;99.90
51793;DHT22;37850;53.178;6.376;2023-04-01T03:25:49;9.80;99.90
51793;DHT22;37850;53.178;6.376;2023-04-01T03:28:15;9.80;99.90
51793;DHT22;37850;53.178;6.376;2023-04-01T03:30:41;9.80;99.90
51793;DHT22;37850;53.178;6.376;2023-04-01T03:33:07;9.80;99.90
51793;DHT22;37850;53.178;6.376;2023-04-01T03:35:33;9.80;99.90
51793;DHT22;37850;53.178;6.376;2023-04-01T03:38:01;9.70;99.90
51793;DHT22;37850;53.178;6.376;2023-04-01T03:40:27;9.80;99.90
51793;DHT22;37850;53.178;6.376;2023-04-01T03:42:53;9.70;99.90
51793;DHT22;37850;53.178;6.376;2023-04-01T03:45:18;9.70;99.90
51793;DHT22;37850;53.178;6.376;2023-04-01T03:47:47;9.80;99.90
51793;DHT22;37850;53.178;6.376;2023-04-01T03:50:12;9.70;99.90
51793;DHT22;37850;53.178;6.376;2023-04-01T03:52:38;9.70;99.90
51793;DHT22;37850;53.178;6.376;2023-04-01T03:55:04;9.70;99.90
51793;DHT22;37850;53.178;6.376;2023-04-01T03:57:31;9.70;99.90
51793;DHT22;37850;53.178;6.376;2023-04-01T03:59:57;9.70;99.90
51793;DHT22;37850;53.178;6.376;2023-04-01T04:02:22;9.70;99.90
51793;DHT22;37850;53.178;6.376;2023-04-01T04:04:48;9.70;99.90
51793;DHT22;37850;53.178;6.376;2023-04-01T04:07:14;9.70;99.90
51793;DHT22;37850;53.178;6.376;2023-04-01T04:09:40;9.70;99.90
51793;DHT22;37850;53.178;6.376;2023-04-01T04:12:06;9.70;99.90
51793;DHT22;37850;53.178;6.376;2023-04-01T04:14:32;9.70;99.90
51793;DHT22;37850;53.178;6.376;2023-04-01T04:16:58;9.70;99.90
51793;DHT22;37850;53.178;6.376;2023-04-01T04:19:23;9.70;99.90
51793;DHT22;37850;53.178;6.376;2023-04-01T04:21:49;9.70;99.90
51793;DHT22;37850;53.178;6.376;2023-04-01T04:24:15;9.70;99.90
51793;DHT22;37850;53.178;6.376;2023-04-01T04:26:40;9.70;99.90
51793;DHT22;37850;53.178;6.376;2023-04-01T04:29:06;9.70;99.90
51793;DHT22;37850;53.178;6.376;2023-04-01T04:31:32;9.40;99.90
51793;DHT22;37850;53.178;6.376;2023-04-01T04:33:59;9.70;99.90
51793;DHT22;37850;53.178;6.376;2023-04-01T04:36:26;9.70;99.90
51793;DHT22;37850;53.178;6.376;2023-04-01T04:38:52;10.00;99.90
51793;DHT22;37850;53.178;6.376;2023-04-01T04:41:19;9.70;99.90
51793;DHT22;37850;53.178;6.376;2023-04-01T04:43:53;9.70;99.90
51793;DHT22;37850;53.178;6.376;2023-04-01T04:46:21;9.70;99.90
51793;DHT22;37850;53.178;6.376;2023-04-01T04:48:47;9.70;99.90
51793;DHT22;37850;53.178;6.376;2023-04-01T04:51:15;9.70;99.90
51793;DHT22;37850;53.178;6.376;2023-04-01T04:53:41;9.70;99.90
51793;DHT22;37850;53.178;6.376;2023-04-01T04:56:07;9.70;99.90
51793;DHT22;37850;53.178;6.376;2023-04-01T04:58:33;9.70;99.90
51793;DHT22;37850;53.178;6.376;2023-04-01T05:01:04;9.70;99.90
51793;DHT22;37850;53.178;6.376;2023-04-01T05:03:30;9.70;99.90
51793;DHT22;37850;53.178;6.376;2023-04-01T05:05:56;9.70;99.90
51793;DHT22;37850;53.178;6.376;2023-04-01T05:08:22;9.70;99.90
51793;DHT22;37850;53.178;6.376;2023-04-01T05:10:48;9.70;99.90
51793;DHT22;37850;53.178;6.376;2023-04-01T05:13:13;9.70;99.90
51793;DHT22;37850;53.178;6.376;2023-04-01T05:15:39;9.70;99.90
51793;DHT22;37850;53.178;6.376;2023-04-01T05:18:05;9.70;99.90
51793;DHT22;37850;53.178;6.376;2023-04-01T05:20:31;9.70;99.90
51793;DHT22;37850;53.178;6.376;2023-04-01T05:22:57;9.70;99.90
51793;DHT22;37850;53.178;6.376;2023-04-01T05:25:23;9.70;99.90
51793;DHT22;37850;53.178;6.376;2023-04-01T05:27:49;9.70;99.90
51793;DHT22;37850;53.178;6.376;2023-04-01T05:30:15;9.70;99.90
51793;DHT22;37850;53.178;6.376;2023-04-01T05:32:41;9.70;99.90
51793;DHT22;37850;53.178;6.376;2023-04-01T05:35:07;9.70;99.90
51793;DHT22;37850;53.178;6.376;2023-04-01T05:37:36;9.70;99.90
51793;DHT22;37850;53.178;6.376;2023-04-01T05:40:03;9.70;99.90
51793;DHT22;37850;53.178;6.376;2023-04-01T05:42:29;9.70;99.90
51793;DHT22;37850;53.178;6.376;2023-04-01T05:44:55;9.70;99.90
51793;DHT22;37850;53.178;6.376;2023-04-01T05:47:21;9.90;99.90
51793;DHT22;37850;53.178;6.376;2023-04-01T05:49:50;9.80;99.90
51793;DHT22;37850;53.178;6.376;2023-04-01T05:52:16;9.80;99.90
51793;DHT22;37850;53.178;6.376;2023-04-01T05:54:42;9.70;99.90
51793;DHT22;37850;53.178;6.376;2023-04-01T05:57:07;9.70;99.90
51793;DHT22;37850;53.178;6.376;2023-04-01T05:59:33;9.70;99.90
51793;DHT22;37850;53.178;6.376;2023-04-01T06:02:00;9.70;99.90
51793;DHT22;37850;53.178;6.376;2023-04-01T06:04:32;9.80;99.90
51793;DHT22;37850;53.178;6.376;2023-04-01T06:06:59;9.70;99.90
51793;DHT22;37850;53.178;6.376;2023-04-01T06:09:27;9.80;99.90
51793;DHT22;37850;53.178;6.376;2023-04-01T06:42:28;9.70;99.90
51793;DHT22;37850;53.178;6.376;2023-04-01T06:51:01;9.70;99.90
51793;DHT22;37850;53.178;6.376;2023-04-01T06:56:10;9.80;99.90
51793;DHT22;37850;53.178;6.376;2023-04-01T06:58:42;9.80;99.90
51793;DHT22;37850;53.178;6.376;2023-04-01T07:01:14;9.80;99.90
51793;DHT22;37850;53.178;6.376;2023-04-01T07:03:52;9.80;99.90
51793;DHT22;37850;53.178;6.376;2023-04-01T07:06:43;9.90;99.90
51793;DHT22;37850;53.178;6.376;2023-04-01T07:09:36;9.90;99.90
51793;DHT22;37850;53.178;6.376;2023-04-01T07:12:51;10.00;99.90
51793;DHT22;37850;53.178;6.376;2023-04-01T07:15:02;10.00;99.90
51793;DHT22;37850;53.178;6.376;2023-04-01T07:17:32;10.00;99.90
51793;DHT22;37850;53.178;6.376;2023-04-01T07:20:02;10.00;99.90
51793;DHT22;37850;53.178;6.376;2023-04-01T07:22:35;10.00;99.90
51793;DHT22;37850;53.178;6.376;2023-04-01T07:25:12;10.00;99.90
51793;DHT22;37850;53.178;6.376;2023-04-01T07:27:38;10.00;99.90
51793;DHT22;37850;53.178;6.376;2023-04-01T07:30:19;10.00;99.90
51793;DHT22;37850;53.178;6.376;2023-04-01T07:33:08;10.00;99.90
51793;DHT22;37850;53.178;6.376;2023-04-01T07:35:51;10.10;99.90
51793;DHT22;37850;53.178;6.376;2023-04-01T07:41:42;10.10;99.90
51793;DHT22;37850;53.178;6.376;2023-04-01T07:47:03;10.20;99.90
51793;DHT22;37850;53.178;6.376;2023-04-01T07:54:50;10.30;99.90
51793;DHT22;37850;53.178;6.376;2023-04-01T08:05:29;10.40;99.90
51793;DHT22;37850;53.178;6.376;2023-04-01T08:13:33;10.40;99.90
51793;DHT22;37850;53.178;6.376;2023-04-01T08:16:16;10.40;99.90
51793;DHT22;37850;53.178;6.376;2023-04-01T08:21:43;10.40;99.90
51793;DHT22;37850;53.178;6.376;2023-04-01T08:24:27;10.40;99.90
51793;DHT22;37850;53.178;6.376;2023-04-01T08:26:58;10.40;99.90
51793;DHT22;37850;53.178;6.376;2023-04-01T08:29:41;10.40;99.90
51793;DHT22;37850;53.178;6.376;2023-04-01T08:32:16;10.40;99.90
51793;DHT22;37850;53.178;6.376;2023-04-01T08:34:47;10.40;99.90
51793;DHT22;37850;53.178;6.376;2023-04-01T08:37:24;10.50;99.90
51793;DHT22;37850;53.178;6.376;2023-04-01T08:40:15;10.50;99.90
51793;DHT22;37850;53.178;6.376;2023-04-01T09:15:16;10.80;99.90
51793;DHT22;37850;53.178;6.376;2023-04-01T09:32:02;10.40;99.90
51793;DHT22;37850;53.178;6.376;2023-04-01T09:34:51;10.30;99.90
51793;DHT22;37850;53.178;6.376;2023-04-01T09:45:39;10.00;99.90
51793;DHT22;37850;53.178;6.376;2023-04-01T09:48:21;10.00;99.90
51793;DHT22;37850;53.178;6.376;2023-04-01T10:08:00;9.80;99.90
51793;DHT22;37850;53.178;6.376;2023-04-01T10:22:11;9.70;99.90
51793;DHT22;37850;53.178;6.376;2023-04-01T10:27:36;9.70;99.90
51793;DHT22;37850;53.178;6.376;2023-04-01T10:42:38;9.50;99.90
51793;DHT22;37850;53.178;6.376;2023-04-01T10:58:21;9.40;99.90
51793;DHT22;37850;53.178;6.376;2023-04-01T11:41:02;9.30;99.90
51793;DHT22;37850;53.178;6.376;2023-04-01T11:44:07;9.30;99.90
51793;DHT22;37850;53.178;6.376;2023-04-01T12:03:42;9.40;99.90
51793;DHT22;37850;53.178;6.376;2023-04-01T12:11:52;9.30;99.90
51793;DHT22;37850;53.178;6.376;2023-04-01T12:19:43;9.30;99.90
51793;DHT22;37850;53.178;6.376;2023-04-01T12:22:34;9.30;99.90
51793;DHT22;37850;53.178;6.376;2023-04-01T12:37:05;9.30;99.90
51793;DHT22;37850;53.178;6.376;2023-04-01T12:42:44;9.30;99.90
51793;DHT22;37850;53.178;6.376;2023-04-01T12:47:57;9.30;99.90
51793;DHT22;37850;53.178;6.376;2023-04-01T12:55:52;9.30;99.90
51793;DHT22;37850;53.178;6.376;2023-04-01T13:01:57;9.30;99.90
51793;DHT22;37850;53.178;6.376;2023-04-01T13:07:49;9.20;99.90
51793;DHT22;37850;53.178;6.376;2023-04-01T13:15:35;9.20;99.90
51793;DHT22;37850;53.178;6.376;2023-04-01T13:29:57;9.30;99.90
51793;DHT22;37850;53.178;6.376;2023-04-01T13:43:20;9.20;99.90
51793;DHT22;37850;53.178;6.376;2023-04-01T13:57:31;9.20;99.90
51793;DHT22;37850;53.178;6.376;2023-04-01T14:03:41;9.10;99.90
51793;DHT22;37850;53.178;6.376;2023-04-01T14:20:30;9.00;99.90
51793;DHT22;37850;53.178;6.376;2023-04-01T14:37:13;8.90;99.90
51793;DHT22;37850;53.178;6.376;2023-04-01T14:39:47;8.90;99.90
51793;DHT22;37850;53.178;6.376;2023-04-01T14:49:50;8.80;99.90
51793;DHT22;37850;53.178;6.376;2023-04-01T14:52:36;8.80;99.90
51793;DHT22;37850;53.178;6.376;2023-04-01T15:03:37;8.70;99.90
51793;DHT22;37850;53.178;6.376;2023-04-01T15:06:35;8.70;99.90
51793;DHT22;37850;53.178;6.376;2023-04-01T15:09:42;8.60;99.90
51793;DHT22;37850;53.178;6.376;2023-04-01T15:17:58;8.50;99.90
51793;DHT22;37850;53.178;6.376;2023-04-01T15:20:54;8.40;99.90
51793;DHT22;37850;53.178;6.376;2023-04-01T15:26:13;8.30;99.90
51793;DHT22;37850;53.178;6.376;2023-04-01T15:31:53;8.30;99.90
51793;DHT22;37850;53.178;6.376;2023-04-01T15:42:40;8.10;99.90
51793;DHT22;37850;53.178;6.376;2023-04-01T15:45:30;8.10;99.90
51793;DHT22;37850;53.178;6.376;2023-04-01T15:51:07;8.00;99.90
51793;DHT22;37850;53.178;6.376;2023-04-01T15:56:49;7.90;99.90
51793;DHT22;37850;53.178;6.376;2023-04-01T16:10:17;7.80;99.90
51793;DHT22;37850;53.178;6.376;2023-04-01T16:28:40;7.60;99.90
51793;DHT22;37850;53.178;6.376;2023-04-01T16:33:51;7.50;99.90
51793;DHT22;37850;53.178;6.376;2023-04-01T16:36:36;7.50;99.90
51793;DHT22;37850;53.178;6.376;2023-04-01T16:42:31;7.40;99.90
51793;DHT22;37850;53.178;6.376;2023-04-01T16:47:36;7.40;99.90
51793;DHT22;37850;53.178;6.376;2023-04-01T16:50:19;7.40;99.90
51793;DHT22;37850;53.178;6.376;2023-04-01T16:55:50;7.30;99.90
51793;DHT22;37850;53.178;6.376;2023-04-01T16:58:35;7.30;99.90
51793;DHT22;37850;53.178;6.376;2023-04-01T17:01:24;7.20;99.90
51793;DHT22;37850;53.178;6.376;2023-04-01T17:03:58;7.20;99.90
51793;DHT22;37850;53.178;6.376;2023-04-01T17:06:49;7.20;99.90
51793;DHT22;37850;53.178;6.376;2023-04-01T17:09:32;7.20;99.90
51793;DHT22;37850;53.178;6.376;2023-04-01T17:12:24;7.20;99.90
51793;DHT22;37850;53.178;6.376;2023-04-01T17:17:47;7.10;99.90
51793;DHT22;37850;53.178;6.376;2023-04-01T17:22:59;7.00;99.90
51793;DHT22;37850;53.178;6.376;2023-04-01T17:50:01;6.80;99.90
51793;DHT22;37850;53.178;6.376;2023-04-01T17:52:35;7.10;99.90
51793;DHT22;37850;53.178;6.376;2023-04-01T17:57:54;6.80;99.90
51793;DHT22;37850;53.178;6.376;2023-04-01T18:00:33;6.80;99.90
51793;DHT22;37850;53.178;6.376;2023-04-01T18:03:23;6.80;99.90
51793;DHT22;37850;53.178;6.376;2023-04-01T18:14:42;6.60;99.90
51793;DHT22;37850;53.178;6.376;2023-04-01T18:22:43;6.60;99.90
51793;DHT22;37850;53.178;6.376;2023-04-01T18:25:33;6.50;99.90
51793;DHT22;37850;53.178;6.376;2023-04-01T18:28:25;6.50;99.90
51793;DHT22;37850;53.178;6.376;2023-04-01T18:31:23;6.50;99.90
51793;DHT22;37850;53.178;6.376;2023-04-01T18:36:32;6.50;99.90
51793;DHT22;37850;53.178;6.376;2023-04-01T18:39:04;6.50;99.90
51793;DHT22;37850;53.178;6.376;2023-04-01T18:47:44;6.50;99.90
51793;DHT22;37850;53.178;6.376;2023-04-01T18:50:22;6.40;99.90
51793;DHT22;37850;53.178;6.376;2023-04-01T18:52:54;6.40;99.90
51793;DHT22;37850;53.178;6.376;2023-04-01T19:00:44;6.30;99.90
51793;DHT22;37850;53.178;6.376;2023-04-01T19:03:12;6.30;99.90
51793;DHT22;37850;53.178;6.376;2023-04-01T19:05:42;6.30;99.90
51793;DHT22;37850;53.178;6.376;2023-04-01T19:08:30;6.30;99.90
51793;DHT22;37850;53.178;6.376;2023-04-01T19:17:15;6.20;99.90
51793;DHT22;37850;53.178;6.376;2023-04-01T19:27:52;6.00;99.90
51793;DHT22;37850;53.178;6.376;2023-04-01T19:33:13;6.00;99.90
51793;DHT22;37850;53.178;6.376;2023-04-01T19:41:29;5.90;99.90
51793;DHT22;37850;53.178;6.376;2023-04-01T19:46:42;5.90;99.90
51793;DHT22;37850;53.178;6.376;2023-04-01T19:49:49;5.90;99.90
51793;DHT22;37850;53.178;6.376;2023-04-01T19:52:14;5.80;99.90
51793;DHT22;37850;53.178;6.376;2023-04-01T19:54:49;5.80;99.90
51793;DHT22;37850;53.178;6.376;2023-04-01T19:57:37;6.80;99.90
51793;DHT22;37850;53.178;6.376;2023-04-01T20:00:28;5.80;99.90
51793;DHT22;37850;53.178;6.376;2023-04-01T20:03:21;5.80;99.90
51793;DHT22;37850;53.178;6.376;2023-04-01T20:06:21;5.80;99.90
51793;DHT22;37850;53.178;6.376;2023-04-01T20:12:04;5.70;99.90
51793;DHT22;37850;53.178;6.376;2023-04-01T20:15:03;5.70;99.90
51793;DHT22;37850;53.178;6.376;2023-04-01T20:25:30;5.60;99.90
51793;DHT22;37850;53.178;6.376;2023-04-01T20:28:29;5.60;99.90
51793;DHT22;37850;53.178;6.376;2023-04-01T20:37:10;5.50;99.90
51793;DHT22;37850;53.178;6.376;2023-04-01T20:50:38;5.40;99.90
51793;DHT22;37850;53.178;6.376;2023-04-01T20:53:15;5.40;99.90
51793;DHT22;37850;53.178;6.376;2023-04-01T20:58:24;5.40;99.90
51793;DHT22;37850;53.178;6.376;2023-04-01T21:01:19;5.40;99.90
51793;DHT22;37850;53.178;6.376;2023-04-01T21:09:29;5.40;99.90
51793;DHT22;37850;53.178;6.376;2023-04-01T21:20:47;5.30;99.90
51793;DHT22;37850;53.178;6.376;2023-04-01T21:26:07;5.30;99.90
51793;DHT22;37850;53.178;6.376;2023-04-01T21:28:41;5.30;99.90
51793;DHT22;37850;53.178;6.376;2023-04-01T21:36:32;5.30;99.90
51793;DHT22;37850;53.178;6.376;2023-04-01T21:42:53;5.20;99.90
51793;DHT22;37850;53.178;6.376;2023-04-01T21:47:55;5.20;99.90
51793;DHT22;37850;53.178;6.376;2023-04-01T22:07:28;5.10;99.90
51793;DHT22;37850;53.178;6.376;2023-04-01T22:10:22;5.10;99.90
51793;DHT22;37850;53.178;6.376;2023-04-01T22:12:54;5.10;99.90
51793;DHT22;37850;53.178;6.376;2023-04-01T22:15:46;5.10;99.90
51793;DHT22;37850;53.178;6.376;2023-04-01T22:21:18;5.10;99.90
51793;DHT22;37850;53.178;6.376;2023-04-01T22:23:52;5.00;99.90
51793;DHT22;37850;53.178;6.376;2023-04-01T22:26:44;5.00;99.90
51793;DHT22;37850;53.178;6.376;2023-04-01T22:32:00;5.00;99.90
51793;DHT22;37850;53.178;6.376;2023-04-01T22:34:42;5.00;99.90
51793;DHT22;37850;53.178;6.376;2023-04-01T22:37:23;5.40;99.90
51793;DHT22;37850;53.178;6.376;2023-04-01T22:42:42;5.00;99.90
51793;DHT22;37850;53.178;6.376;2023-04-01T22:48:17;4.90;99.90
51793;DHT22;37850;53.178;6.376;2023-04-01T22:50:59;4.80;99.90
51793;DHT22;37850;53.178;6.376;2023-04-01T22:55:53;5.10;99.90
51793;DHT22;37850;53.178;6.376;2023-04-01T22:58:57;4.70;99.90
51793;DHT22;37850;53.178;6.376;2023-04-01T23:01:29;4.60;99.90
51793;DHT22;37850;53.178;6.376;2023-04-01T23:03:58;4.60;99.90
51793;DHT22;37850;53.178;6.376;2023-04-01T23:06:34;4.50;99.90
51793;DHT22;37850;53.178;6.376;2023-04-01T23:11:44;4.50;99.90
51793;DHT22;37850;53.178;6.376;2023-04-01T23:17:18;4.40;99.90
51793;DHT22;37850;53.178;6.376;2023-04-01T23:33:22;4.20;99.90
51793;DHT22;37850;53.178;6.376;2023-04-01T23:35:55;4.90;99.90
51793;DHT22;37850;53.178;6.376;2023-04-01T23:38:23;4.10;99.90
51793;DHT22;37850;53.178;6.376;2023-04-01T23:40:51;4.10;99.90
51793;DHT22;37850;53.178;6.376;2023-04-01T23:43:29;4.10;99.90
51793;DHT22;37850;53.178;6.376;2023-04-01T23:45:58;4.10;99.90
51793;DHT22;37850;53.178;6.376;2023-04-01T23:48:32;4.10;99.90
51793;DHT22;37850;53.178;6.376;2023-04-01T23:50:58;4.00;99.90
51793;DHT22;37850;53.178;6.376;2023-04-01T23:53:26;4.00;99.90
51793;DHT22;37850;53.178;6.376;2023-04-01T23:55:54;4.00;99.90
51793;DHT22;37850;53.178;6.376;2023-04-01T23:58:27;4.50;99.90
